Pagrindinis puslapis
METAR-TAF:

METAR-TAF

Oro uostai :

Rodas, Graikija

platuma: 36-24N, ilguma: 028-05E, Aukštis: 4 m

Dabartinis oras

Ataskaita buvo paskelbta 18 minutes, ne 10:20 UTC
Vėjas 4 kt iš Vakarų/Šiaurės Vakarų
Temperatūra 21°C
Drėgmė 64%
Slėgis 1017 hPa
Matomumas 10 km arba daugiau
Išsisklaidę debesys ne aukštis 1600 ft

METAR: LGRP 271020Z 29004KT 9999 SCT016 21/14 Q1017 NOSIG

Laikas: 13:38 (10:38 UTC)

Prognozė

Ataskaita buvo paskelbta 5 valandos ir 38 minutes, ne 05:00 UTC
Prognozė galioja nuo 27 metu 06 UTC su 28 metu 06 UTC
Vėjas 5 kt nuo kintamojo kryptimis
Matomumas 10 km arba daugiau
Mažai debesys ne aukštis 1800 ft
Išsisklaidę debesys ne aukštis 2500 ft
Tikimybė 30% :
Laikinai
nuo 27 metu 06 UTC su 28 metu 06 UTC
Matomumas: 5000 m
Mažai debesys ne aukštis 1500 ft
Mažai debesys ne aukštis 1800 ft, aukštai iškilę kamuoliniai debesys.
Su prošvaistėmis ne aukštis 2500 ft
lietus

TAF: LGRP 270500Z 2706/2806 VRB05KT 9999 FEW018 SCT025 PROB30 TEMPO 2706/2806 5000 RA FEW015 FEW018TCU BKN025

Orai ataskaitas ir orų prognozės (METAR, TAF).

turimą stotys yra geltonos ir raudonos taškus žemėlapyje.

Perkelti pele per norėdami pamatyti stoties vardą.

Tada spustelėkite, norėdami matyti oro stebėjimo ir prognozės.

Norėdami pakeisti žemėlapį: spustelėkite ant žalios mygtukų su juodo kryžiaus žemyn,; žalią mygtuką su brūkšneliu, jei norite nutolinti; arba žalių rodyklių gretimoms žemėlapius.


METAR-TAF: